Time;durP1;ratioP1;P1;durP2;ratioP2;P2;SDS_P1;SDS_P2;PMS_P1;PMS_P2;Temp;Humidity;BMP_temperature;BMP_pressure;BME280_temperature;BME280_humidity;BME280_pressure;Samples;Min_cycle;Max_cycle;Signal;HPM_P1;HPM_P2
2021/08/27 00:02:13;;;;;;;8.25;5.68;;;19.40;78.20;;;;;;4840916;29;20037;-57
2021/08/27 00:04:38;;;;;;;8.63;6.50;;;19.40;78.30;;;;;;4840836;29;20030;-58
2021/08/27 00:07:04;;;;;;;8.00;6.20;;;19.40;78.40;;;;;;4840544;29;20042;-57
2021/08/27 00:09:30;;;;;;;8.45;6.40;;;19.40;78.40;;;;;;4841209;29;20041;-57
2021/08/27 00:11:56;;;;;;;8.70;5.78;;;19.40;78.50;;;;;;4840544;29;20034;-58
2021/08/27 00:14:22;;;;;;;8.50;6.40;;;19.40;78.40;;;;;;4840383;29;20469;-58
2021/08/27 00:16:47;;;;;;;8.25;5.82;;;19.40;78.40;;;;;;4840466;29;20057;-57
2021/08/27 00:19:13;;;;;;;8.20;5.65;;;19.40;78.40;;;;;;4840650;29;20510;-58
2021/08/27 00:21:39;;;;;;;8.70;6.30;;;19.50;78.50;;;;;;4840512;29;20038;-58
2021/08/27 00:24:06;;;;;;;7.72;5.65;;;19.50;78.40;;;;;;4840757;29;20391;-58
2021/08/27 00:26:32;;;;;;;7.55;5.57;;;19.50;78.50;;;;;;4841067;29;20034;-58
2021/08/27 00:28:58;;;;;;;7.55;5.88;;;19.50;78.50;;;;;;4840552;29;20158;-58
2021/08/27 00:31:24;;;;;;;7.95;5.75;;;19.50;78.30;;;;;;4840597;29;20116;-58
2021/08/27 00:33:50;;;;;;;7.20;5.40;;;19.50;78.20;;;;;;4840188;29;20163;-58
2021/08/27 00:36:16;;;;;;;7.20;5.35;;;19.40;78.20;;;;;;4840978;29;20476;-58
2021/08/27 00:38:42;;;;;;;7.93;5.65;;;19.40;78.40;;;;;;4840632;29;20117;-58
2021/08/27 00:41:08;;;;;;;7.18;5.32;;;19.30;78.40;;;;;;4840323;29;20105;-58
2021/08/27 00:43:33;;;;;;;6.45;4.50;;;19.30;78.40;;;;;;4840660;29;20033;-58
2021/08/27 00:45:59;;;;;;;7.45;4.50;;;19.20;78.50;;;;;;4840699;29;20097;-58
2021/08/27 00:48:25;;;;;;;6.22;4.18;;;19.20;78.50;;;;;;4840773;29;20033;-58
2021/08/27 00:50:51;;;;;;;6.35;4.28;;;19.20;78.50;;;;;;4840338;29;20033;-58
2021/08/27 00:53:17;;;;;;;6.05;4.30;;;19.30;78.50;;;;;;4843098;29;20493;-58
2021/08/27 00:55:45;;;;;;;6.38;4.05;;;19.30;78.40;;;;;;4844243;29;20493;-58
2021/08/27 00:58:11;;;;;;;6.10;4.05;;;19.30;78.40;;;;;;4844127;29;20029;-58
2021/08/27 01:00:36;;;;;;;5.75;4.20;;;19.30;78.30;;;;;;4843503;29;20041;-58
2021/08/27 01:03:02;;;;;;;5.57;3.78;;;19.30;78.10;;;;;;4844043;29;20030;-58
2021/08/27 01:05:32;;;;;;;5.97;4.07;;;19.30;78.10;;;;;;4844039;29;20036;-58
2021/08/27 01:08:24;;;;;;;5.82;3.83;;;19.30;78.10;;;;;;4843469;29;20030;-58
2021/08/27 01:10:58;;;;;;;6.45;3.92;;;19.30;78.10;;;;;;4825782;29;20037;-58
2021/08/27 01:13:32;;;;;;;5.60;3.70;;;19.20;77.90;;;;;;4834391;29;20073;-58
2021/08/27 01:16:21;;;;;;;5.78;3.90;;;19.20;78.00;;;;;;4843535;29;20113;-58
2021/08/27 01:19:12;;;;;;;5.55;3.83;;;19.10;78.20;;;;;;4843102;29;20046;-58
2021/08/27 01:21:47;;;;;;;7.80;4.47;;;19.20;78.30;;;;;;4843569;29;20022;-58
2021/08/27 01:24:13;;;;;;;7.18;5.00;;;19.10;78.30;;;;;;4843793;29;20032;-58
2021/08/27 01:26:48;;;;;;;7.55;5.18;;;19.00;78.30;;;;;;4843657;29;20030;-58
2021/08/27 01:29:20;;;;;;;6.38;4.72;;;19.00;78.50;;;;;;4842961;29;20030;-58
2021/08/27 01:31:54;;;;;;;6.87;4.80;;;18.90;78.70;;;;;;4843382;29;20092;-58
2021/08/27 01:34:43;;;;;;;7.28;5.85;;;18.90;78.80;;;;;;4843281;29;20090;-58
2021/08/27 01:37:16;;;;;;;7.45;5.60;;;18.80;79.00;;;;;;4843770;29;20112;-58
2021/08/27 01:39:48;;;;;;;6.68;4.80;;;18.80;79.20;;;;;;4843177;29;20052;-58
2021/08/27 01:42:17;;;;;;;7.50;5.47;;;18.80;79.30;;;;;;4843088;29;20048;-58
2021/08/27 01:44:44;;;;;;;7.47;5.63;;;18.80;79.40;;;;;;4843288;29;20410;-58
2021/08/27 01:47:12;;;;;;;8.73;7.03;;;18.80;79.60;;;;;;4843345;29;20800;-58
2021/08/27 01:49:38;;;;;;;9.05;7.70;;;18.80;79.70;;;;;;4843125;29;20033;-58
2021/08/27 01:52:08;;;;;;;9.07;7.50;;;18.80;79.80;;;;;;4842945;29;20443;-58
2021/08/27 01:54:36;;;;;;;9.13;7.40;;;18.80;80.00;;;;;;4843070;29;20030;-59
2021/08/27 01:57:03;;;;;;;10.48;7.60;;;18.70;80.10;;;;;;4842931;29;20034;-59
2021/08/27 01:59:34;;;;;;;8.88;7.15;;;18.70;80.40;;;;;;4842938;29;20033;-58
2021/08/27 02:02:02;;;;;;;12.10;9.52;;;18.60;80.40;;;;;;4842259;29;20362;-58
2021/08/27 02:04:29;;;;;;;10.27;8.90;;;18.60;80.90;;;;;;4842426;29;20065;-59
2021/08/27 02:06:55;;;;;;;9.85;8.00;;;18.60;80.90;;;;;;4842850;29;22007;-59
2021/08/27 02:09:21;;;;;;;9.25;7.32;;;18.60;80.80;;;;;;4842857;29;20490;-59
2021/08/27 02:11:48;;;;;;;9.02;7.00;;;18.60;81.00;;;;;;4842691;29;20068;-59
2021/08/27 02:14:15;;;;;;;9.27;7.25;;;18.60;81.10;;;;;;4842519;29;20436;-58
2021/08/27 02:16:41;;;;;;;8.77;7.18;;;18.60;81.20;;;;;;4842947;29;20033;-57
2021/08/27 02:19:07;;;;;;;8.20;6.22;;;18.50;81.30;;;;;;4842611;29;20089;-58
2021/08/27 02:21:38;;;;;;;6.97;5.25;;;18.60;81.40;;;;;;4842587;29;20138;-57
2021/08/27 02:24:14;;;;;;;8.43;6.18;;;18.50;81.50;;;;;;4842170;29;20081;-58
2021/08/27 02:26:42;;;;;;;7.45;5.47;;;18.50;81.50;;;;;;4842850;29;20030;-57
2021/08/27 02:29:09;;;;;;;7.93;5.10;;;18.50;81.60;;;;;;4842565;29;20099;-57
2021/08/27 02:31:36;;;;;;;8.40;5.50;;;18.50;81.70;;;;;;4825911;29;20033;-57
2021/08/27 02:34:04;;;;;;;7.55;5.50;;;18.50;81.70;;;;;;4842306;29;20482;-57
2021/08/27 02:36:30;;;;;;;7.22;5.10;;;18.50;81.70;;;;;;4842625;29;20088;-58
2021/08/27 02:38:57;;;;;;;7.30;4.82;;;18.50;81.70;;;;;;4842288;29;20383;-58
2021/08/27 02:41:23;;;;;;;6.63;4.80;;;18.50;81.80;;;;;;4842087;29;20114;-57
2021/08/27 02:43:49;;;;;;;7.32;5.18;;;18.50;81.80;;;;;;4841841;29;20066;-58
2021/08/27 02:46:15;;;;;;;6.65;4.75;;;18.60;81.70;;;;;;4841971;29;20038;-58
2021/08/27 02:48:41;;;;;;;6.60;4.75;;;18.60;81.50;;;;;;4842299;29;20022;-59
2021/08/27 02:51:16;;;;;;;6.22;4.35;;;18.60;81.40;;;;;;4842080;29;20390;-58
2021/08/27 02:53:46;;;;;;;6.90;4.90;;;18.50;81.50;;;;;;4825587;29;20109;-59
2021/08/27 02:56:30;;;;;;;6.30;4.22;;;18.60;81.60;;;;;;4841779;29;20030;-59
2021/08/27 02:58:58;;;;;;;8.63;5.70;;;18.60;81.60;;;;;;4842069;29;20034;-58
2021/08/27 03:01:37;;;;;;;8.77;6.55;;;18.60;81.50;;;;;;4841586;29;20037;-58
2021/08/27 03:04:27;;;;;;;8.43;6.00;;;18.60;81.30;;;;;;4841401;29;20025;-58
2021/08/27 03:06:59;;;;;;;8.90;6.20;;;18.60;81.20;;;;;;4841729;29;20030;-58
2021/08/27 03:09:30;;;;;;;9.43;5.82;;;18.60;81.40;;;;;;4841705;29;20030;-58
2021/08/27 03:12:01;;;;;;;8.15;5.63;;;18.60;81.30;;;;;;4841576;29;20174;-58
2021/08/27 03:14:45;;;;;;;8.07;5.35;;;18.60;81.30;;;;;;4840592;29;20037;-58
2021/08/27 03:17:17;;;;;;;8.68;5.38;;;18.60;81.30;;;;;;4839871;29;20054;-58
2021/08/27 03:19:59;;;;;;;7.93;5.10;;;18.60;81.30;;;;;;4825221;29;20116;-58
2021/08/27 03:22:30;;;;;;;7.78;5.10;;;18.70;81.20;;;;;;4841543;29;20363;-58
2021/08/27 03:25:09;;;;;;;9.68;6.13;;;18.70;81.00;;;;;;4841334;29;20478;-59
2021/08/27 03:27:48;;;;;;;8.40;5.30;;;18.80;80.90;;;;;;4841332;29;20470;-58
2021/08/27 03:30:22;;;;;;;8.65;5.47;;;18.70;80.80;;;;;;4841502;29;20095;-58
2021/08/27 03:32:51;;;;;;;9.10;5.75;;;18.70;80.90;;;;;;4841254;29;20246;-58
2021/08/27 03:35:19;;;;;;;9.52;6.13;;;18.70;81.10;;;;;;4841232;29;20034;-58
2021/08/27 03:37:48;;;;;;;9.10;5.70;;;18.80;81.10;;;;;;4841420;29;20729;-59
2021/08/27 03:40:14;;;;;;;8.98;5.80;;;18.70;81.00;;;;;;4840938;29;20067;-58
2021/08/27 03:42:41;;;;;;;9.10;5.75;;;18.80;80.90;;;;;;4823576;29;20751;-58
2021/08/27 03:45:08;;;;;;;9.00;5.97;;;18.80;80.80;;;;;;4823253;29;20052;-58
2021/08/27 03:47:34;;;;;;;8.48;5.13;;;18.80;80.80;;;;;;4823354;29;20031;-58
2021/08/27 03:50:00;;;;;;;9.20;5.70;;;18.90;80.70;;;;;;4823516;29;20724;-58
2021/08/27 03:52:26;;;;;;;8.90;5.75;;;18.90;80.60;;;;;;4835479;29;20042;-58
2021/08/27 03:54:52;;;;;;;10.20;6.32;;;18.90;80.50;;;;;;4841046;29;20041;-59
2021/08/27 03:57:18;;;;;;;10.73;6.32;;;18.90;80.50;;;;;;4841092;29;20030;-59
2021/08/27 03:59:45;;;;;;;10.32;6.47;;;19.00;80.30;;;;;;4840971;29;20030;-58
2021/08/27 04:02:14;;;;;;;11.98;6.30;;;19.00;80.30;;;;;;4840774;29;20098;-58
2021/08/27 04:04:40;;;;;;;10.07;5.75;;;18.90;80.30;;;;;;4840688;29;20034;-59
2021/08/27 04:07:06;;;;;;;8.82;5.88;;;19.00;80.30;;;;;;4840981;29;20030;-58
2021/08/27 04:09:34;;;;;;;9.68;6.15;;;19.00;80.30;;;;;;4840769;29;20022;-58
2021/08/27 04:12:02;;;;;;;9.60;6.45;;;19.00;80.30;;;;;;4840857;29;20125;-58
2021/08/27 04:14:28;;;;;;;9.30;6.18;;;19.00;80.10;;;;;;4840587;29;20034;-58
2021/08/27 04:16:54;;;;;;;9.35;6.47;;;19.00;80.10;;;;;;4840081;29;20510;-58
2021/08/27 04:19:20;;;;;;;8.85;5.78;;;18.90;80.10;;;;;;4840835;29;20030;-58
2021/08/27 04:21:46;;;;;;;8.30;5.55;;;18.90;80.10;;;;;;4824337;29;20141;-58
2021/08/27 04:24:12;;;;;;;8.73;6.03;;;19.00;80.40;;;;;;4824555;29;20034;-58
2021/08/27 04:26:38;;;;;;;9.05;5.63;;;19.00;80.30;;;;;;4842761;29;20041;-59
2021/08/27 04:29:04;;;;;;;8.80;6.10;;;19.00;80.20;;;;;;4843939;29;20037;-58
2021/08/27 04:31:30;;;;;;;9.57;6.45;;;19.10;80.20;;;;;;4844506;29;20045;-58
2021/08/27 04:33:56;;;;;;;9.43;6.28;;;19.20;80.20;;;;;;4844364;29;20385;-59
2021/08/27 04:36:22;;;;;;;9.57;6.43;;;19.20;80.20;;;;;;4844516;29;20118;-58
2021/08/27 04:38:48;;;;;;;8.68;5.85;;;19.30;80.00;;;;;;4844282;29;20110;-58
2021/08/27 04:41:14;;;;;;;10.10;7.20;;;19.40;79.80;;;;;;4844094;29;20038;-60
2021/08/27 04:43:40;;;;;;;11.15;6.90;;;19.40;79.60;;;;;;4844248;29;20105;-60
2021/08/27 04:46:06;;;;;;;10.57;7.40;;;19.40;79.50;;;;;;4844114;29;20032;-57
2021/08/27 04:48:31;;;;;;;10.68;6.40;;;19.40;79.40;;;;;;4844052;29;20033;-59
2021/08/27 04:50:57;;;;;;;9.05;6.75;;;19.40;79.20;;;;;;4843878;29;20414;-58
2021/08/27 04:53:22;;;;;;;9.43;6.63;;;19.40;79.20;;;;;;4843908;29;20065;-58
2021/08/27 04:55:48;;;;;;;9.48;6.72;;;19.40;79.10;;;;;;4844324;29;20049;-58
2021/08/27 04:58:14;;;;;;;8.07;5.82;;;19.40;79.10;;;;;;4843835;29;20072;-59
2021/08/27 05:00:39;;;;;;;9.93;6.93;;;19.40;79.30;;;;;;4827209;29;20029;-59
2021/08/27 05:03:05;;;;;;;10.05;7.32;;;19.40;79.20;;;;;;4843219;29;20093;-58
2021/08/27 05:05:31;;;;;;;9.38;6.78;;;19.40;79.10;;;;;;4844006;29;20026;-59
2021/08/27 05:07:56;;;;;;;9.90;6.90;;;19.40;79.00;;;;;;4843982;29;20026;-58
2021/08/27 05:10:22;;;;;;;8.95;6.38;;;19.40;79.00;;;;;;4843710;29;20389;-59
2021/08/27 05:12:48;;;;;;;9.23;6.65;;;19.40;79.00;;;;;;4843212;29;20181;-58
2021/08/27 05:15:13;;;;;;;10.05;7.10;;;19.50;79.00;;;;;;4843179;29;20165;-58
2021/08/27 05:17:40;;;;;;;10.45;7.47;;;19.50;78.80;;;;;;4843402;29;20526;-58
2021/08/27 05:20:06;;;;;;;10.90;7.47;;;19.50;78.70;;;;;;4843514;29;20065;-58
2021/08/27 05:22:33;;;;;;;11.40;7.90;;;19.40;78.60;;;;;;4843521;29;20026;-58
2021/08/27 05:24:59;;;;;;;10.65;6.95;;;19.40;78.80;;;;;;4843097;29;20036;-59
2021/08/27 05:27:25;;;;;;;11.55;7.93;;;19.30;79.00;;;;;;4843720;29;20386;-59
2021/08/27 05:29:51;;;;;;;11.10;7.68;;;19.30;78.90;;;;;;4844066;29;20401;-58
2021/08/27 05:32:17;;;;;;;10.90;8.15;;;19.20;78.80;;;;;;4843719;29;20422;-58
2021/08/27 05:34:43;;;;;;;13.00;9.30;;;19.20;78.90;;;;;;4843119;29;20117;-59
2021/08/27 05:37:09;;;;;;;12.32;8.88;;;19.20;79.00;;;;;;4826405;29;20486;-59
2021/08/27 05:39:35;;;;;;;12.30;8.75;;;19.20;79.00;;;;;;4842762;29;20041;-58
2021/08/27 05:42:01;;;;;;;11.48;8.13;;;19.20;79.00;;;;;;4843476;29;20033;-58
2021/08/27 05:44:27;;;;;;;11.07;7.57;;;19.20;79.00;;;;;;4842919;29;20017;-59
2021/08/27 05:46:54;;;;;;;12.30;8.48;;;19.20;79.10;;;;;;4842592;29;20049;-58
2021/08/27 05:49:20;;;;;;;11.15;7.82;;;19.20;79.10;;;;;;4843134;29;20026;-58
2021/08/27 05:51:46;;;;;;;12.95;8.82;;;19.20;79.00;;;;;;4843122;29;20390;-58
2021/08/27 05:54:11;;;;;;;10.93;7.80;;;19.20;78.90;;;;;;4842901;29;20116;-59
2021/08/27 05:56:37;;;;;;;11.82;8.10;;;19.20;79.00;;;;;;4842588;29;20037;-59
2021/08/27 05:59:03;;;;;;;10.75;7.30;;;19.20;79.10;;;;;;4842862;29;20053;-59
2021/08/27 06:01:29;;;;;;;11.95;6.93;;;19.20;79.10;;;;;;4842636;29;20034;-59
2021/08/27 06:03:54;;;;;;;10.18;6.78;;;19.30;79.00;;;;;;4842328;29;20090;-59
2021/08/27 06:06:20;;;;;;;8.85;5.93;;;19.40;79.10;;;;;;4842450;29;20074;-59
2021/08/27 06:08:46;;;;;;;9.85;6.90;;;19.50;79.00;;;;;;4842172;29;20041;-59
2021/08/27 06:11:12;;;;;;;11.38;7.70;;;19.50;78.80;;;;;;4842858;29;20040;-59
2021/08/27 06:13:38;;;;;;;9.95;6.95;;;19.60;78.50;;;;;;4842619;29;20162;-59
2021/08/27 06:16:04;;;;;;;11.55;8.00;;;19.60;78.40;;;;;;4842403;29;20067;-58
2021/08/27 06:18:30;;;;;;;12.10;7.78;;;19.70;78.50;;;;;;4842103;29;20130;-59
2021/08/27 06:20:55;;;;;;;11.85;7.72;;;19.70;78.20;;;;;;4822636;29;20034;-59
2021/08/27 06:23:21;;;;;;;12.57;8.43;;;19.70;77.90;;;;;;4824167;29;20436;-60
2021/08/27 06:25:47;;;;;;;13.40;8.73;;;19.70;77.80;;;;;;4830725;29;20061;-59
2021/08/27 06:28:13;;;;;;;13.40;9.00;;;19.60;77.80;;;;;;4842300;29;20040;-58
2021/08/27 06:30:39;;;;;;;13.60;9.82;;;19.50;78.00;;;;;;4842189;29;20828;-58
2021/08/27 06:33:05;;;;;;;13.15;8.82;;;19.50;77.90;;;;;;4825958;29;20049;-60
2021/08/27 06:35:31;;;;;;;13.25;9.05;;;19.50;78.00;;;;;;4842080;29;20026;-59
2021/08/27 06:40:43;;;;;;;13.80;9.27;;;19.40;78.10;;;;;;4842085;29;20064;-59
2021/08/27 06:43:08;;;;;;;11.48;7.82;;;19.40;78.10;;;;;;4842299;29;20454;-58
2021/08/27 06:45:34;;;;;;;15.02;9.85;;;19.40;78.10;;;;;;4841870;29;20057;-59
2021/08/27 06:48:00;;;;;;;13.00;8.90;;;19.40;78.60;;;;;;4841820;29;20552;-59
2021/08/27 06:50:25;;;;;;;13.15;8.45;;;19.30;78.00;;;;;;4841602;29;20072;-58
2021/08/27 06:52:53;;;;;;;13.40;8.88;;;19.30;78.20;;;;;;4841799;29;20033;-59
2021/08/27 06:55:18;;;;;;;12.45;8.30;;;19.30;78.30;;;;;;4841798;29;20070;-60
2021/08/27 06:57:44;;;;;;;13.38;8.60;;;19.30;78.30;;;;;;4841816;29;20065;-59
2021/08/27 07:00:10;;;;;;;12.27;8.82;;;19.40;78.30;;;;;;4841580;29;20497;-59
2021/08/27 07:02:36;;;;;;;11.85;8.45;;;19.40;78.10;;;;;;4841139;29;20090;-58
2021/08/27 07:05:02;;;;;;;16.65;11.57;;;19.40;78.10;;;;;;4841327;29;20053;-59
2021/08/27 07:07:28;;;;;;;15.75;10.38;;;19.40;77.80;;;;;;4841570;29;20026;-58
2021/08/27 07:09:53;;;;;;;17.52;11.25;;;19.40;77.80;;;;;;4841466;29;20470;-59
2021/08/27 07:12:20;;;;;;;15.38;10.43;;;19.30;78.00;;;;;;4841485;29;20347;-59
2021/08/27 07:14:50;;;;;;;14.52;10.25;;;19.30;78.00;;;;;;4841536;29;20025;-58
2021/08/27 07:17:16;;;;;;;13.50;9.15;;;19.20;78.00;;;;;;4841316;29;20058;-58
2021/08/27 07:19:42;;;;;;;14.70;9.20;;;19.20;78.10;;;;;;4841022;29;20030;-59
2021/08/27 07:22:08;;;;;;;14.30;9.77;;;19.20;78.30;;;;;;4841391;29;20040;-61
2021/08/27 07:24:33;;;;;;;14.07;9.63;;;19.20;78.30;;;;;;4841406;29;20080;-59
2021/08/27 07:26:59;;;;;;;15.00;9.55;;;19.20;78.30;;;;;;4841295;29;20765;-60
2021/08/27 07:29:25;;;;;;;14.15;9.98;;;19.20;78.50;;;;;;4841132;29;20026;-60
2021/08/27 07:31:50;;;;;;;16.75;12.05;;;19.30;78.50;;;;;;4841205;29;20037;-59
2021/08/27 07:34:16;;;;;;;16.98;11.27;;;19.30;78.10;;;;;;4850528;29;20117;-59
2021/08/27 07:36:41;;;;;;;15.52;10.82;;;19.30;78.20;;;;;;4842553;29;20082;-61
2021/08/27 07:39:07;;;;;;;14.98;10.73;;;19.40;78.30;;;;;;4840978;29;20163;-59
2021/08/27 07:41:33;;;;;;;15.63;11.07;;;19.40;78.20;;;;;;4842641;29;20503;-59
2021/08/27 07:43:59;;;;;;;15.80;10.75;;;19.50;78.10;;;;;;4847596;29;20026;-59
2021/08/27 07:46:25;;;;;;;15.55;11.23;;;19.50;78.20;;;;;;4840902;29;20055;-59
2021/08/27 07:48:50;;;;;;;16.20;11.27;;;19.50;78.10;;;;;;4836567;29;20090;-59
2021/08/27 07:51:17;;;;;;;16.02;11.43;;;19.60;78.20;;;;;;4840693;29;20033;-60
2021/08/27 07:53:42;;;;;;;16.42;11.60;;;19.60;78.10;;;;;;4840327;29;20032;-59
2021/08/27 07:56:08;;;;;;;16.85;11.70;;;19.70;78.00;;;;;;4840781;29;20030;-59
2021/08/27 07:58:34;;;;;;;16.58;11.98;;;19.70;77.70;;;;;;4840681;29;20040;-59
2021/08/27 08:01:01;;;;;;;14.48;10.27;;;19.70;77.60;;;;;;4839988;29;20030;-58
2021/08/27 08:03:26;;;;;;;14.80;10.25;;;19.70;77.70;;;;;;4840527;29;20026;-59
2021/08/27 08:05:52;;;;;;;13.45;10.07;;;19.80;77.70;;;;;;4840342;29;20496;-61
2021/08/27 08:08:18;;;;;;;13.00;9.75;;;19.90;77.80;;;;;;4824654;29;20026;-60
2021/08/27 08:10:44;;;;;;;15.73;10.48;;;20.00;77.80;;;;;;4840941;29;20387;-59
2021/08/27 08:13:09;;;;;;;14.38;10.23;;;20.10;77.50;;;;;;4840398;29;20095;-59
2021/08/27 08:15:36;;;;;;;12.63;9.15;;;20.20;77.20;;;;;;4840675;29;20064;-59
2021/08/27 08:18:02;;;;;;;14.07;10.52;;;20.20;77.40;;;;;;4840500;29;20066;-59
2021/08/27 08:20:28;;;;;;;14.93;10.55;;;20.30;77.10;;;;;;4840740;29;20034;-62
2021/08/27 08:22:56;;;;;;;14.25;10.10;;;20.40;76.70;;;;;;4840638;29;20454;-59
2021/08/27 08:25:22;;;;;;;13.73;10.00;;;20.30;76.50;;;;;;4840747;29;20034;-59
2021/08/27 08:27:48;;;;;;;13.50;9.50;;;20.30;76.80;;;;;;4840673;29;20037;-59
2021/08/27 08:30:14;;;;;;;12.45;9.40;;;20.30;77.00;;;;;;4828961;29;20031;-59
2021/08/27 08:32:40;;;;;;;12.88;9.90;;;20.40;77.00;;;;;;4840684;29;20158;-60
2021/08/27 08:35:06;;;;;;;11.73;8.60;;;20.40;76.70;;;;;;4838620;29;20030;-59
2021/08/27 08:37:32;;;;;;;12.77;8.90;;;20.50;76.50;;;;;;4838700;29;20438;-59
2021/08/27 08:39:58;;;;;;;11.73;8.52;;;20.50;76.50;;;;;;4839999;29;20486;-60
2021/08/27 08:42:24;;;;;;;11.57;8.75;;;20.60;76.50;;;;;;4827943;29;20042;-59
2021/08/27 08:44:50;;;;;;;12.60;8.98;;;20.60;76.30;;;;;;4822152;29;20027;-60
2021/08/27 08:47:17;;;;;;;11.43;8.73;;;20.70;75.80;;;;;;4822393;29;20367;-61
2021/08/27 08:49:46;;;;;;;13.07;10.00;;;20.60;75.60;;;;;;4822531;29;20061;-59
2021/08/27 08:52:19;;;;;;;12.05;9.60;;;20.60;75.50;;;;;;4822413;29;20054;-61
2021/08/27 08:54:47;;;;;;;12.63;9.80;;;20.60;75.40;;;;;;4821966;29;20069;-60
2021/08/27 08:57:13;;;;;;;12.82;9.85;;;20.50;75.50;;;;;;4822356;29;20035;-61
2021/08/27 08:59:38;;;;;;;12.98;9.50;;;20.50;75.60;;;;;;4822562;29;20091;-60
2021/08/27 09:02:07;;;;;;;11.48;8.85;;;20.50;75.70;;;;;;4821980;29;20346;-61
2021/08/27 09:07:17;;;;;;;11.82;9.23;;;20.60;75.90;;;;;;4822203;29;20410;-59
2021/08/27 09:09:43;;;;;;;12.13;9.15;;;20.80;76.00;;;;;;4822082;29;20062;-62
2021/08/27 09:12:24;;;;;;;11.18;9.13;;;21.00;75.40;;;;;;4831306;29;20030;-60
2021/08/27 09:15:01;;;;;;;11.82;9.65;;;21.10;75.10;;;;;;4824987;29;20035;-60
2021/08/27 09:17:42;;;;;;;10.65;8.50;;;21.20;74.60;;;;;;4824831;29;20070;-61
2021/08/27 09:20:11;;;;;;;10.82;8.35;;;21.20;74.60;;;;;;4825304;29;20042;-61
2021/08/27 09:22:58;;;;;;;9.00;7.15;;;21.30;74.90;;;;;;4824831;29;20030;-60
2021/08/27 09:25:31;;;;;;;9.63;7.43;;;21.50;74.60;;;;;;4823614;29;20078;-60
2021/08/27 09:28:00;;;;;;;9.68;7.35;;;21.70;74.50;;;;;;4825181;29;20062;-61
2021/08/27 09:30:25;;;;;;;10.90;8.32;;;21.90;74.10;;;;;;4834766;29;20025;-59
2021/08/27 09:32:52;;;;;;;10.07;8.07;;;22.00;73.70;;;;;;4843144;29;20075;-60
2021/08/27 09:35:21;;;;;;;10.32;8.70;;;22.10;73.10;;;;;;4843030;29;20038;-60
2021/08/27 09:37:52;;;;;;;10.75;8.70;;;22.20;72.90;;;;;;4843117;29;20034;-60
2021/08/27 09:40:19;;;;;;;11.23;9.32;;;22.30;72.30;;;;;;4842960;29;20065;-59
2021/08/27 09:42:50;;;;;;;10.38;8.38;;;22.30;72.10;;;;;;4842622;29;20064;-60
2021/08/27 09:45:17;;;;;;;11.52;9.70;;;22.40;72.10;;;;;;4843505;29;20037;-60
2021/08/27 09:47:59;;;;;;;10.05;8.23;;;22.50;71.90;;;;;;4838218;29;20041;-60
2021/08/27 09:50:30;;;;;;;10.93;9.02;;;22.70;71.60;;;;;;4842805;29;20448;-60
2021/08/27 09:53:02;;;;;;;10.60;8.88;;;22.70;71.10;;;;;;4826050;29;20086;-61
2021/08/27 09:55:29;;;;;;;9.73;8.13;;;22.70;70.70;;;;;;4842838;29;20457;-61
2021/08/27 09:58:21;;;;;;;9.27;7.63;;;22.70;70.90;;;;;;4842630;29;20086;-61
2021/08/27 10:01:08;;;;;;;9.98;7.90;;;22.80;70.30;;;;;;4841577;29;20046;-61
2021/08/27 10:03:34;;;;;;;9.30;7.38;;;22.80;70.40;;;;;;4842565;29;20038;-63
2021/08/27 10:06:03;;;;;;;11.63;9.20;;;22.90;70.40;;;;;;4842786;29;20090;-60
2021/08/27 10:08:35;;;;;;;11.38;9.18;;;22.90;69.90;;;;;;4840089;29;20022;-61
2021/08/27 10:11:17;;;;;;;10.52;8.40;;;22.80;69.60;;;;;;4842405;29;20060;-60
2021/08/27 10:13:43;;;;;;;9.43;7.68;;;22.80;69.70;;;;;;4840097;29;20439;-59
2021/08/27 10:16:09;;;;;;;9.80;8.43;;;22.80;69.70;;;;;;4840672;29;20030;-59
2021/08/27 10:18:35;;;;;;;10.80;8.77;;;22.90;69.70;;;;;;4840906;29;20046;-58
2021/08/27 10:21:02;;;;;;;10.70;8.57;;;22.90;69.70;;;;;;4843860;29;20040;-59
2021/08/27 10:23:28;;;;;;;8.93;7.57;;;23.00;69.10;;;;;;4852441;29;20026;-59
2021/08/27 10:25:54;;;;;;;9.65;8.00;;;23.10;69.20;;;;;;4850776;29;20036;-60
2021/08/27 10:28:27;;;;;;;11.00;9.20;;;23.20;68.90;;;;;;4825559;29;20129;-57
2021/08/27 10:30:56;;;;;;;10.45;8.27;;;23.20;68.20;;;;;;4841365;29;20033;-58
2021/08/27 10:33:42;;;;;;;9.25;8.05;;;23.20;68.10;;;;;;4841083;29;20390;-58
2021/08/27 10:36:10;;;;;;;10.52;8.52;;;23.20;67.90;;;;;;4839992;29;20033;-59
2021/08/27 10:38:44;;;;;;;9.60;7.68;;;23.20;68.10;;;;;;4842094;29;20381;-59
2021/08/27 10:41:16;;;;;;;9.20;7.38;;;23.30;68.10;;;;;;4840487;29;20034;-59
2021/08/27 10:43:57;;;;;;;8.23;6.82;;;23.30;67.90;;;;;;4841849;29;20056;-60
2021/08/27 10:46:42;;;;;;;8.65;7.25;;;23.40;67.90;;;;;;4841811;29;20034;-59
2021/08/27 10:49:08;;;;;;;8.10;6.43;;;23.60;67.90;;;;;;4841579;29;20108;-60
2021/08/27 10:51:38;;;;;;;7.82;6.60;;;23.90;67.90;;;;;;4841119;29;20089;-60
2021/08/27 10:54:06;;;;;;;7.55;6.40;;;24.10;67.30;;;;;;4841335;29;20034;-58
2021/08/27 10:56:44;;;;;;;8.07;6.80;;;24.40;67.10;;;;;;4839862;29;20030;-60
2021/08/27 10:59:12;;;;;;;7.72;6.57;;;24.80;65.60;;;;;;4833661;29;20342;-59
2021/08/27 11:01:43;;;;;;;8.13;6.50;;;24.90;64.80;;;;;;4841104;29;20034;-59
2021/08/27 11:04:23;;;;;;;7.00;5.88;;;24.90;64.50;;;;;;4840756;29;20508;-58
2021/08/27 11:06:53;;;;;;;7.30;5.85;;;25.00;64.30;;;;;;4840925;29;20069;-59
2021/08/27 11:09:23;;;;;;;7.60;6.55;;;25.00;63.90;;;;;;4835475;29;20386;-59
2021/08/27 11:12:13;;;;;;;7.28;6.38;;;25.00;63.90;;;;;;4841028;29;20037;-58
2021/08/27 11:14:40;;;;;;;7.88;6.78;;;25.00;63.70;;;;;;4840809;29;20072;-59
2021/08/27 11:17:07;;;;;;;8.40;7.20;;;25.10;63.80;;;;;;4840846;29;21394;-60
2021/08/27 11:19:58;;;;;;;8.23;7.32;;;25.20;63.60;;;;;;4841047;29;20109;-59
2021/08/27 11:22:31;;;;;;;7.40;6.50;;;25.30;63.10;;;;;;4840404;29;20481;-59
2021/08/27 11:25:08;;;;;;;7.20;5.90;;;25.60;63.90;;;;;;4841498;29;20044;-59
2021/08/27 11:27:35;;;;;;;7.05;6.07;;;26.00;63.50;;;;;;4840145;29;20037;-58
2021/08/27 11:30:29;;;;;;;7.22;6.28;;;26.50;62.90;;;;;;4852372;29;20064;-60
2021/08/27 11:32:56;;;;;;;6.00;4.72;;;26.80;61.00;;;;;;4840519;29;20042;-59
2021/08/27 11:35:25;;;;;;;6.80;5.50;;;26.90;61.30;;;;;;4840341;29;20058;-59
2021/08/27 11:37:56;;;;;;;6.13;4.97;;;26.90;60.60;;;;;;4836918;29;20528;-60
2021/08/27 11:40:22;;;;;;;6.28;4.80;;;26.90;60.60;;;;;;4840243;29;20113;-59
2021/08/27 11:42:53;;;;;;;6.57;5.10;;;27.00;60.80;;;;;;4839889;29;20037;-60
2021/08/27 11:45:20;;;;;;;6.38;5.18;;;27.10;60.50;;;;;;4840511;29;20074;-59
2021/08/27 11:47:58;;;;;;;7.50;5.30;;;27.30;60.30;;;;;;4840597;29;20040;-58
2021/08/27 11:50:31;;;;;;;6.30;4.78;;;27.50;59.40;;;;;;4840120;29;21661;-61
2021/08/27 11:53:01;;;;;;;6.10;4.70;;;27.60;59.40;;;;;;4840599;29;20091;-61
2021/08/27 11:55:28;;;;;;;6.43;5.30;;;27.70;59.20;;;;;;4841126;29;20030;-62
2021/08/27 11:57:53;;;;;;;6.85;5.65;;;27.90;59.40;;;;;;4840830;29;20545;-61
2021/08/27 12:00:30;;;;;;;6.72;5.53;;;28.10;59.70;;;;;;4840189;29;20065;-61
2021/08/27 12:02:57;;;;;;;6.72;5.82;;;28.40;59.50;;;;;;4838711;29;20037;-61
2021/08/27 12:05:25;;;;;;;6.50;5.18;;;28.70;59.60;;;;;;4839980;29;20029;-61
2021/08/27 12:07:57;;;;;;;7.20;5.60;;;29.30;60.50;;;;;;4840795;29;20030;-61
2021/08/27 12:10:25;;;;;;;6.60;5.28;;;30.30;60.40;;;;;;4840824;29;20033;-62
2021/08/27 12:12:53;;;;;;;5.95;4.85;;;31.30;60.30;;;;;;4839179;29;20397;-62
2021/08/27 12:15:21;;;;;;;6.78;5.50;;;32.20;58.90;;;;;;4840500;29;20033;-61
2021/08/27 12:17:52;;;;;;;5.93;5.10;;;32.70;57.00;;;;;;4840334;29;20076;-61
2021/08/27 12:20:19;;;;;;;6.28;5.18;;;33.10;56.30;;;;;;4840715;29;20375;-61
2021/08/27 12:22:45;;;;;;;6.03;5.15;;;33.80;56.50;;;;;;4840941;29;20765;-61
2021/08/27 12:25:42;;;;;;;5.78;5.00;;;34.50;55.80;;;;;;4840903;29;20346;-62
2021/08/27 12:28:10;;;;;;;5.90;5.15;;;35.40;51.60;;;;;;4839699;29;20038;-62
2021/08/27 12:30:50;;;;;;;5.85;4.85;;;36.10;54.00;;;;;;4840742;29;20058;-61
2021/08/27 12:33:16;;;;;;;5.68;4.90;;;36.90;52.20;;;;;;4840629;29;20040;-61
2021/08/27 12:35:43;;;;;;;5.63;4.97;;;37.40;51.80;;;;;;4840649;29;20030;-61
2021/08/27 12:38:09;;;;;;;5.90;5.10;;;37.90;51.00;;;;;;4840511;29;20075;-61
2021/08/27 12:40:35;;;;;;;5.57;4.68;;;38.30;50.10;;;;;;4840786;29;20030;-61
2021/08/27 12:43:13;;;;;;;5.45;4.57;;;38.80;49.40;;;;;;4840410;29;20570;-61
2021/08/27 12:45:51;;;;;;;5.85;4.38;;;39.20;48.20;;;;;;4840214;29;20074;-60
2021/08/27 12:48:28;;;;;;;5.55;4.47;;;39.50;47.70;;;;;;4843511;29;20026;-61
2021/08/27 12:51:00;;;;;;;5.22;4.53;;;39.80;47.10;;;;;;4844023;29;20040;-61
2021/08/27 12:53:39;;;;;;;5.20;4.40;;;40.10;46.40;;;;;;4844014;29;20034;-61
2021/08/27 12:56:10;;;;;;;5.03;4.40;;;40.30;45.60;;;;;;4843770;29;20159;-61
2021/08/27 12:58:36;;;;;;;5.10;4.40;;;40.60;45.40;;;;;;4843746;29;20045;-62